Terminal Aerodrome Forecast
Issued by NWS

Home | Current Version | Previous Version | Text Only | Print | Product List | Glossary On
Versions: 1 2 3 4 5 6 7 8 9 10 11 12 13 14 15 16
925
FTUS46 KMFR 291429 AAA
TAFRBG
TAF AMD
KRBG 291429Z 2914/3012 01005KT P6SM SCT006 OVC010
     FM291600 35005KT P6SM OVC012
     FM291900 36005KT P6SM SCT015
     FM292200 36008KT P6SM SCT120
     FM301000 35006KT P6SM OVC012=

USA.gov is the U.S. government's official web portal to all federal, state and local government web resources and services.